sensor_id;sensor_type;location;lat;lon;timestamp;P1;durP1;ratioP1;P2;durP2;ratioP2
38226;SDS011;24026;49.446;8.576;2023-04-23T00:00:23;133.65;;;120.25;;
38226;SDS011;24026;49.446;8.576;2023-04-23T00:03:22;133.50;;;119.90;;
38226;SDS011;24026;49.446;8.576;2023-04-23T00:15:12;133.27;;;119.85;;
38226;SDS011;24026;49.446;8.576;2023-04-23T00:23:50;132.70;;;119.38;;
38226;SDS011;24026;49.446;8.576;2023-04-23T00:27:06;132.98;;;119.60;;
38226;SDS011;24026;49.446;8.576;2023-04-23T00:29:49;133.63;;;120.15;;
38226;SDS011;24026;49.446;8.576;2023-04-23T00:32:19;132.68;;;119.38;;
38226;SDS011;24026;49.446;8.576;2023-04-23T00:35:03;133.13;;;119.75;;
38226;SDS011;24026;49.446;8.576;2023-04-23T00:37:48;134.57;;;120.97;;
38226;SDS011;24026;49.446;8.576;2023-04-23T00:43:31;133.00;;;119.65;;
38226;SDS011;24026;49.446;8.576;2023-04-23T00:46:28;133.20;;;119.80;;
38226;SDS011;24026;49.446;8.576;2023-04-23T00:49:26;133.90;;;120.50;;
38226;SDS011;24026;49.446;8.576;2023-04-23T00:52:15;132.75;;;119.30;;
38226;SDS011;24026;49.446;8.576;2023-04-23T01:09:11;153.43;;;138.07;;
38226;SDS011;24026;49.446;8.576;2023-04-23T01:12:32;132.32;;;118.93;;
38226;SDS011;24026;49.446;8.576;2023-04-23T01:34:30;132.77;;;119.38;;
38226;SDS011;24026;49.446;8.576;2023-04-23T01:37:48;130.98;;;117.68;;
38226;SDS011;24026;49.446;8.576;2023-04-23T01:47:25;132.13;;;118.65;;
38226;SDS011;24026;49.446;8.576;2023-04-23T01:56:50;132.80;;;119.38;;
38226;SDS011;24026;49.446;8.576;2023-04-23T02:00:05;133.00;;;119.57;;
38226;SDS011;24026;49.446;8.576;2023-04-23T02:03:24;132.75;;;119.35;;
38226;SDS011;24026;49.446;8.576;2023-04-23T02:18:14;132.85;;;119.45;;
38226;SDS011;24026;49.446;8.576;2023-04-23T02:21:20;132.35;;;118.88;;
38226;SDS011;24026;49.446;8.576;2023-04-23T02:28:53;134.32;;;120.78;;
38226;SDS011;24026;49.446;8.576;2023-04-23T02:31:46;131.73;;;118.43;;
38226;SDS011;24026;49.446;8.576;2023-04-23T02:34:47;133.32;;;119.82;;
38226;SDS011;24026;49.446;8.576;2023-04-23T02:41:06;134.05;;;120.45;;
38226;SDS011;24026;49.446;8.576;2023-04-23T02:51:31;132.50;;;119.00;;
38226;SDS011;24026;49.446;8.576;2023-04-23T03:06:18;133.15;;;119.65;;
38226;SDS011;24026;49.446;8.576;2023-04-23T03:09:37;133.07;;;119.60;;
38226;SDS011;24026;49.446;8.576;2023-04-23T03:13:15;132.38;;;118.88;;
38226;SDS011;24026;49.446;8.576;2023-04-23T03:16:45;132.65;;;119.18;;
38226;SDS011;24026;49.446;8.576;2023-04-23T03:32:38;131.98;;;118.55;;
38226;SDS011;24026;49.446;8.576;2023-04-23T03:36:03;131.90;;;118.50;;
38226;SDS011;24026;49.446;8.576;2023-04-23T03:41:35;132.75;;;119.32;;
38226;SDS011;24026;49.446;8.576;2023-04-23T03:44:33;133.00;;;119.45;;
38226;SDS011;24026;49.446;8.576;2023-04-23T03:50:03;132.73;;;119.32;;
38226;SDS011;24026;49.446;8.576;2023-04-23T03:59:16;133.38;;;119.72;;
38226;SDS011;24026;49.446;8.576;2023-04-23T04:05:47;136.70;;;122.68;;
38226;SDS011;24026;49.446;8.576;2023-04-23T04:08:53;133.45;;;119.85;;
38226;SDS011;24026;49.446;8.576;2023-04-23T04:22:17;131.25;;;117.93;;
38226;SDS011;24026;49.446;8.576;2023-04-23T04:24:38;132.27;;;118.88;;
38226;SDS011;24026;49.446;8.576;2023-04-23T04:27:01;132.43;;;119.07;;
38226;SDS011;24026;49.446;8.576;2023-04-23T04:29:21;132.65;;;119.28;;
38226;SDS011;24026;49.446;8.576;2023-04-23T04:31:42;132.82;;;119.53;;
38226;SDS011;24026;49.446;8.576;2023-04-23T04:34:03;131.68;;;118.38;;
38226;SDS011;24026;49.446;8.576;2023-04-23T04:36:24;131.73;;;118.38;;
38226;SDS011;24026;49.446;8.576;2023-04-23T04:38:46;132.10;;;118.75;;
38226;SDS011;24026;49.446;8.576;2023-04-23T04:41:06;132.07;;;118.82;;
38226;SDS011;24026;49.446;8.576;2023-04-23T04:43:27;131.57;;;118.22;;
38226;SDS011;24026;49.446;8.576;2023-04-23T04:45:47;131.77;;;118.43;;
38226;SDS011;24026;49.446;8.576;2023-04-23T04:48:08;132.02;;;118.63;;
38226;SDS011;24026;49.446;8.576;2023-04-23T04:50:28;132.57;;;119.20;;
38226;SDS011;24026;49.446;8.576;2023-04-23T04:52:49;131.32;;;118.05;;
38226;SDS011;24026;49.446;8.576;2023-04-23T04:55:09;132.75;;;119.28;;
38226;SDS011;24026;49.446;8.576;2023-04-23T04:57:30;132.45;;;119.15;;
38226;SDS011;24026;49.446;8.576;2023-04-23T04:59:50;132.18;;;118.82;;
38226;SDS011;24026;49.446;8.576;2023-04-23T05:02:11;132.27;;;118.97;;
38226;SDS011;24026;49.446;8.576;2023-04-23T05:04:31;132.25;;;118.90;;
38226;SDS011;24026;49.446;8.576;2023-04-23T05:06:51;133.63;;;120.20;;
38226;SDS011;24026;49.446;8.576;2023-04-23T05:09:12;131.73;;;118.38;;
38226;SDS011;24026;49.446;8.576;2023-04-23T05:11:32;131.30;;;118.03;;
38226;SDS011;24026;49.446;8.576;2023-04-23T05:13:55;132.70;;;119.32;;
38226;SDS011;24026;49.446;8.576;2023-04-23T05:16:15;133.23;;;119.82;;
38226;SDS011;24026;49.446;8.576;2023-04-23T05:18:39;133.43;;;120.03;;
38226;SDS011;24026;49.446;8.576;2023-04-23T05:21:00;133.25;;;119.85;;
38226;SDS011;24026;49.446;8.576;2023-04-23T05:23:21;132.60;;;119.22;;
38226;SDS011;24026;49.446;8.576;2023-04-23T05:25:41;131.80;;;118.50;;
38226;SDS011;24026;49.446;8.576;2023-04-23T05:28:02;132.32;;;119.03;;
38226;SDS011;24026;49.446;8.576;2023-04-23T05:30:23;132.52;;;119.13;;
38226;SDS011;24026;49.446;8.576;2023-04-23T05:32:43;131.70;;;118.45;;
38226;SDS011;24026;49.446;8.576;2023-04-23T05:35:04;132.30;;;118.90;;
38226;SDS011;24026;49.446;8.576;2023-04-23T05:37:25;132.05;;;118.80;;
38226;SDS011;24026;49.446;8.576;2023-04-23T05:39:46;132.55;;;119.10;;
38226;SDS011;24026;49.446;8.576;2023-04-23T05:42:06;131.32;;;118.07;;
38226;SDS011;24026;49.446;8.576;2023-04-23T05:44:27;130.00;;;116.78;;
38226;SDS011;24026;49.446;8.576;2023-04-23T05:46:48;132.20;;;118.80;;
38226;SDS011;24026;49.446;8.576;2023-04-23T05:49:09;132.63;;;119.32;;
38226;SDS011;24026;49.446;8.576;2023-04-23T05:51:29;132.25;;;118.88;;
38226;SDS011;24026;49.446;8.576;2023-04-23T05:53:50;131.65;;;118.35;;
38226;SDS011;24026;49.446;8.576;2023-04-23T05:56:10;132.40;;;119.00;;
38226;SDS011;24026;49.446;8.576;2023-04-23T05:58:30;131.52;;;118.22;;
38226;SDS011;24026;49.446;8.576;2023-04-23T06:00:51;131.75;;;118.47;;
38226;SDS011;24026;49.446;8.576;2023-04-23T06:03:12;131.48;;;118.25;;
38226;SDS011;24026;49.446;8.576;2023-04-23T06:05:33;132.73;;;119.35;;
38226;SDS011;24026;49.446;8.576;2023-04-23T06:07:55;131.68;;;118.38;;
38226;SDS011;24026;49.446;8.576;2023-04-23T06:10:15;131.75;;;118.47;;
38226;SDS011;24026;49.446;8.576;2023-04-23T06:12:36;132.13;;;118.88;;
38226;SDS011;24026;49.446;8.576;2023-04-23T06:15:01;132.23;;;118.90;;
38226;SDS011;24026;49.446;8.576;2023-04-23T06:17:21;132.50;;;119.05;;
38226;SDS011;24026;49.446;8.576;2023-04-23T06:19:44;132.57;;;119.20;;
38226;SDS011;24026;49.446;8.576;2023-04-23T06:25:03;132.00;;;118.60;;
38226;SDS011;24026;49.446;8.576;2023-04-23T06:27:40;131.75;;;118.40;;
38226;SDS011;24026;49.446;8.576;2023-04-23T06:33:41;131.95;;;118.57;;
38226;SDS011;24026;49.446;8.576;2023-04-23T06:36:16;130.85;;;117.55;;
38226;SDS011;24026;49.446;8.576;2023-04-23T06:49:18;129.82;;;116.53;;
38226;SDS011;24026;49.446;8.576;2023-04-23T06:55:14;129.88;;;116.65;;
38226;SDS011;24026;49.446;8.576;2023-04-23T06:58:09;130.45;;;117.18;;
38226;SDS011;24026;49.446;8.576;2023-04-23T07:03:35;131.57;;;118.25;;
38226;SDS011;24026;49.446;8.576;2023-04-23T07:20:16;131.20;;;117.85;;
38226;SDS011;24026;49.446;8.576;2023-04-23T07:22:47;132.48;;;119.13;;
38226;SDS011;24026;49.446;8.576;2023-04-23T07:31:29;132.13;;;118.72;;
38226;SDS011;24026;49.446;8.576;2023-04-23T07:34:23;132.05;;;118.65;;
38226;SDS011;24026;49.446;8.576;2023-04-23T07:40:56;135.02;;;121.22;;
38226;SDS011;24026;49.446;8.576;2023-04-23T07:46:31;130.63;;;117.30;;
38226;SDS011;24026;49.446;8.576;2023-04-23T07:49:04;133.02;;;119.57;;
38226;SDS011;24026;49.446;8.576;2023-04-23T07:51:47;133.65;;;120.25;;
38226;SDS011;24026;49.446;8.576;2023-04-23T08:00:03;132.43;;;118.93;;
38226;SDS011;24026;49.446;8.576;2023-04-23T08:02:34;132.93;;;119.57;;
38226;SDS011;24026;49.446;8.576;2023-04-23T08:05:20;135.35;;;121.85;;
38226;SDS011;24026;49.446;8.576;2023-04-23T08:07:50;132.93;;;119.70;;
38226;SDS011;24026;49.446;8.576;2023-04-23T08:13:17;133.82;;;120.40;;
38226;SDS011;24026;49.446;8.576;2023-04-23T08:23:02;132.68;;;119.30;;
38226;SDS011;24026;49.446;8.576;2023-04-23T08:32:25;132.88;;;119.38;;
38226;SDS011;24026;49.446;8.576;2023-04-23T08:51:36;133.52;;;120.10;;
38226;SDS011;24026;49.446;8.576;2023-04-23T08:57:26;147.52;;;132.85;;
38226;SDS011;24026;49.446;8.576;2023-04-23T09:02:53;134.95;;;121.47;;
38226;SDS011;24026;49.446;8.576;2023-04-23T09:05:41;134.10;;;120.75;;
38226;SDS011;24026;49.446;8.576;2023-04-23T09:11:39;135.25;;;121.75;;
38226;SDS011;24026;49.446;8.576;2023-04-23T09:24:13;133.82;;;120.50;;
38226;SDS011;24026;49.446;8.576;2023-04-23T09:30:12;134.23;;;120.93;;
38226;SDS011;24026;49.446;8.576;2023-04-23T09:49:03;136.48;;;123.00;;
38226;SDS011;24026;49.446;8.576;2023-04-23T09:54:27;136.25;;;122.55;;
38226;SDS011;24026;49.446;8.576;2023-04-23T10:14:11;136.75;;;123.25;;
38226;SDS011;24026;49.446;8.576;2023-04-23T10:17:39;135.00;;;121.57;;
38226;SDS011;24026;49.446;8.576;2023-04-23T10:27:22;135.55;;;122.10;;
38226;SDS011;24026;49.446;8.576;2023-04-23T10:33:40;137.55;;;123.90;;
38226;SDS011;24026;49.446;8.576;2023-04-23T10:42:34;138.15;;;124.45;;
38226;SDS011;24026;49.446;8.576;2023-04-23T10:54:19;139.38;;;125.88;;
38226;SDS011;24026;49.446;8.576;2023-04-23T11:03:01;136.70;;;123.37;;
38226;SDS011;24026;49.446;8.576;2023-04-23T11:21:02;138.43;;;124.93;;
38226;SDS011;24026;49.446;8.576;2023-04-23T11:31:13;140.00;;;126.50;;
38226;SDS011;24026;49.446;8.576;2023-04-23T11:45:28;139.55;;;126.07;;
38226;SDS011;24026;49.446;8.576;2023-04-23T11:56:03;141.32;;;127.53;;
38226;SDS011;24026;49.446;8.576;2023-04-23T12:02:23;140.02;;;126.53;;
38226;SDS011;24026;49.446;8.576;2023-04-23T12:10:45;143.75;;;129.85;;
38226;SDS011;24026;49.446;8.576;2023-04-23T12:13:51;140.33;;;126.83;;
38226;SDS011;24026;49.446;8.576;2023-04-23T12:16:41;141.75;;;128.15;;
38226;SDS011;24026;49.446;8.576;2023-04-23T12:23:05;139.55;;;126.05;;
38226;SDS011;24026;49.446;8.576;2023-04-23T12:28:59;148.77;;;134.40;;
38226;SDS011;24026;49.446;8.576;2023-04-23T12:31:29;140.38;;;126.88;;
38226;SDS011;24026;49.446;8.576;2023-04-23T12:37:33;140.23;;;126.72;;
38226;SDS011;24026;49.446;8.576;2023-04-23T12:40:10;139.93;;;126.43;;
38226;SDS011;24026;49.446;8.576;2023-04-23T12:43:06;140.75;;;127.25;;
38226;SDS011;24026;49.446;8.576;2023-04-23T12:45:53;139.77;;;126.35;;
38226;SDS011;24026;49.446;8.576;2023-04-23T12:48:45;142.15;;;128.55;;
38226;SDS011;24026;49.446;8.576;2023-04-23T12:51:27;141.25;;;127.75;;
38226;SDS011;24026;49.446;8.576;2023-04-23T12:56:17;140.55;;;126.93;;
38226;SDS011;24026;49.446;8.576;2023-04-23T12:59:21;141.32;;;127.72;;
38226;SDS011;24026;49.446;8.576;2023-04-23T13:02:04;142.77;;;129.18;;
38226;SDS011;24026;49.446;8.576;2023-04-23T13:05:25;141.43;;;127.85;;
38226;SDS011;24026;49.446;8.576;2023-04-23T13:07:45;141.60;;;128.07;;
38226;SDS011;24026;49.446;8.576;2023-04-23T13:10:06;141.40;;;127.90;;
38226;SDS011;24026;49.446;8.576;2023-04-23T13:12:27;141.88;;;128.32;;
38226;SDS011;24026;49.446;8.576;2023-04-23T13:14:49;141.43;;;127.95;;
38226;SDS011;24026;49.446;8.576;2023-04-23T13:17:10;143.00;;;129.50;;
38226;SDS011;24026;49.446;8.576;2023-04-23T13:19:30;142.93;;;129.38;;
38226;SDS011;24026;49.446;8.576;2023-04-23T13:22:03;143.57;;;129.95;;
38226;SDS011;24026;49.446;8.576;2023-04-23T13:24:27;142.15;;;128.63;;
38226;SDS011;24026;49.446;8.576;2023-04-23T13:26:47;142.98;;;129.43;;
38226;SDS011;24026;49.446;8.576;2023-04-23T13:29:08;144.10;;;130.50;;
38226;SDS011;24026;49.446;8.576;2023-04-23T13:31:29;143.23;;;129.63;;
38226;SDS011;24026;49.446;8.576;2023-04-23T13:33:50;144.30;;;130.63;;
38226;SDS011;24026;49.446;8.576;2023-04-23T13:36:11;143.65;;;130.07;;
38226;SDS011;24026;49.446;8.576;2023-04-23T13:38:32;143.77;;;130.18;;
38226;SDS011;24026;49.446;8.576;2023-04-23T13:40:55;142.23;;;128.75;;
38226;SDS011;24026;49.446;8.576;2023-04-23T13:43:16;142.77;;;129.27;;
38226;SDS011;24026;49.446;8.576;2023-04-23T13:45:36;143.95;;;130.38;;
38226;SDS011;24026;49.446;8.576;2023-04-23T13:47:57;142.82;;;129.32;;
38226;SDS011;24026;49.446;8.576;2023-04-23T13:50:21;143.10;;;129.57;;
38226;SDS011;24026;49.446;8.576;2023-04-23T13:52:42;142.60;;;129.13;;
38226;SDS011;24026;49.446;8.576;2023-04-23T13:55:04;143.98;;;130.27;;
38226;SDS011;24026;49.446;8.576;2023-04-23T13:57:28;142.95;;;129.40;;
38226;SDS011;24026;49.446;8.576;2023-04-23T13:59:49;143.40;;;129.70;;
38226;SDS011;24026;49.446;8.576;2023-04-23T14:02:09;144.93;;;131.13;;
38226;SDS011;24026;49.446;8.576;2023-04-23T14:04:30;142.35;;;128.93;;
38226;SDS011;24026;49.446;8.576;2023-04-23T14:06:50;143.05;;;129.50;;
38226;SDS011;24026;49.446;8.576;2023-04-23T14:09:11;143.50;;;130.00;;
38226;SDS011;24026;49.446;8.576;2023-04-23T14:11:32;144.30;;;130.68;;
38226;SDS011;24026;49.446;8.576;2023-04-23T14:13:52;144.23;;;130.63;;
38226;SDS011;24026;49.446;8.576;2023-04-23T14:16:13;143.30;;;129.77;;
38226;SDS011;24026;49.446;8.576;2023-04-23T14:18:34;143.02;;;129.55;;
38226;SDS011;24026;49.446;8.576;2023-04-23T14:20:54;145.63;;;132.02;;
38226;SDS011;24026;49.446;8.576;2023-04-23T14:25:39;142.63;;;129.13;;
38226;SDS011;24026;49.446;8.576;2023-04-23T14:28:01;143.73;;;130.23;;
38226;SDS011;24026;49.446;8.576;2023-04-23T14:30:28;144.10;;;130.55;;
38226;SDS011;24026;49.446;8.576;2023-04-23T14:32:49;144.30;;;130.75;;
38226;SDS011;24026;49.446;8.576;2023-04-23T14:35:10;143.57;;;130.07;;
38226;SDS011;24026;49.446;8.576;2023-04-23T14:37:32;142.35;;;128.93;;
38226;SDS011;24026;49.446;8.576;2023-04-23T14:39:52;143.82;;;130.30;;
38226;SDS011;24026;49.446;8.576;2023-04-23T14:42:13;143.70;;;130.13;;
38226;SDS011;24026;49.446;8.576;2023-04-23T14:44:33;144.63;;;130.82;;
38226;SDS011;24026;49.446;8.576;2023-04-23T14:46:54;143.50;;;129.82;;
38226;SDS011;24026;49.446;8.576;2023-04-23T14:49:16;143.13;;;129.68;;
38226;SDS011;24026;49.446;8.576;2023-04-23T14:51:37;144.05;;;130.55;;
38226;SDS011;24026;49.446;8.576;2023-04-23T14:53:57;143.38;;;129.77;;
38226;SDS011;24026;49.446;8.576;2023-04-23T14:56:18;144.18;;;130.57;;
38226;SDS011;24026;49.446;8.576;2023-04-23T14:58:38;143.07;;;129.60;;
38226;SDS011;24026;49.446;8.576;2023-04-23T15:01:00;143.10;;;129.60;;
38226;SDS011;24026;49.446;8.576;2023-04-23T15:03:21;143.35;;;129.82;;
38226;SDS011;24026;49.446;8.576;2023-04-23T15:05:41;143.25;;;129.80;;
38226;SDS011;24026;49.446;8.576;2023-04-23T15:08:02;143.95;;;130.38;;
38226;SDS011;24026;49.446;8.576;2023-04-23T15:10:23;143.85;;;130.25;;
38226;SDS011;24026;49.446;8.576;2023-04-23T15:12:54;143.90;;;130.35;;
38226;SDS011;24026;49.446;8.576;2023-04-23T15:17:44;142.13;;;128.63;;
38226;SDS011;24026;49.446;8.576;2023-04-23T15:20:05;144.35;;;130.80;;
38226;SDS011;24026;49.446;8.576;2023-04-23T15:22:27;143.65;;;130.15;;
38226;SDS011;24026;49.446;8.576;2023-04-23T15:24:47;142.73;;;129.30;;
38226;SDS011;24026;49.446;8.576;2023-04-23T15:27:11;142.98;;;129.52;;
38226;SDS011;24026;49.446;8.576;2023-04-23T15:29:34;143.25;;;129.70;;
38226;SDS011;24026;49.446;8.576;2023-04-23T15:31:56;143.60;;;130.10;;
38226;SDS011;24026;49.446;8.576;2023-04-23T15:34:17;143.75;;;130.25;;
38226;SDS011;24026;49.446;8.576;2023-04-23T15:36:38;141.48;;;128.10;;
38226;SDS011;24026;49.446;8.576;2023-04-23T15:38:58;143.85;;;130.18;;
38226;SDS011;24026;49.446;8.576;2023-04-23T15:41:26;143.88;;;130.18;;
38226;SDS011;24026;49.446;8.576;2023-04-23T15:43:47;144.30;;;130.55;;
38226;SDS011;24026;49.446;8.576;2023-04-23T15:46:15;141.77;;;128.38;;
38226;SDS011;24026;49.446;8.576;2023-04-23T15:48:38;141.98;;;128.57;;
38226;SDS011;24026;49.446;8.576;2023-04-23T15:51:05;143.00;;;129.50;;
38226;SDS011;24026;49.446;8.576;2023-04-23T15:53:26;143.52;;;129.95;;
38226;SDS011;24026;49.446;8.576;2023-04-23T15:55:50;144.43;;;130.80;;
38226;SDS011;24026;49.446;8.576;2023-04-23T15:58:11;142.13;;;128.65;;
38226;SDS011;24026;49.446;8.576;2023-04-23T16:00:33;141.05;;;127.65;;
38226;SDS011;24026;49.446;8.576;2023-04-23T16:02:54;142.30;;;128.82;;
38226;SDS011;24026;49.446;8.576;2023-04-23T16:05:14;142.52;;;129.02;;
38226;SDS011;24026;49.446;8.576;2023-04-23T16:07:41;142.85;;;129.27;;
38226;SDS011;24026;49.446;8.576;2023-04-23T16:10:45;141.15;;;127.55;;
38226;SDS011;24026;49.446;8.576;2023-04-23T16:13:40;140.60;;;127.13;;
38226;SDS011;24026;49.446;8.576;2023-04-23T16:16:00;143.60;;;130.02;;
38226;SDS011;24026;49.446;8.576;2023-04-23T16:18:28;140.63;;;127.20;;
38226;SDS011;24026;49.446;8.576;2023-04-23T16:21:23;142.50;;;128.85;;
38226;SDS011;24026;49.446;8.576;2023-04-23T16:27:45;140.43;;;126.88;;
38226;SDS011;24026;49.446;8.576;2023-04-23T16:30:45;139.73;;;126.25;;
38226;SDS011;24026;49.446;8.576;2023-04-23T16:36:33;141.13;;;127.55;;
38226;SDS011;24026;49.446;8.576;2023-04-23T16:44:58;138.43;;;125.03;;
38226;SDS011;24026;49.446;8.576;2023-04-23T16:47:29;140.57;;;127.03;;
38226;SDS011;24026;49.446;8.576;2023-04-23T16:49:54;140.88;;;127.28;;
38226;SDS011;24026;49.446;8.576;2023-04-23T16:53:03;140.48;;;126.95;;
38226;SDS011;24026;49.446;8.576;2023-04-23T16:56:20;151.38;;;136.80;;
38226;SDS011;24026;49.446;8.576;2023-04-23T16:58:41;140.18;;;126.65;;
38226;SDS011;24026;49.446;8.576;2023-04-23T17:01:02;139.38;;;125.97;;
38226;SDS011;24026;49.446;8.576;2023-04-23T17:03:22;139.30;;;125.85;;
38226;SDS011;24026;49.446;8.576;2023-04-23T17:05:43;140.27;;;126.80;;
38226;SDS011;24026;49.446;8.576;2023-04-23T17:08:09;139.65;;;126.22;;
38226;SDS011;24026;49.446;8.576;2023-04-23T17:10:29;139.82;;;126.38;;
38226;SDS011;24026;49.446;8.576;2023-04-23T17:12:50;139.55;;;126.15;;
38226;SDS011;24026;49.446;8.576;2023-04-23T17:15:13;140.10;;;126.63;;
38226;SDS011;24026;49.446;8.576;2023-04-23T17:17:33;139.32;;;125.85;;
38226;SDS011;24026;49.446;8.576;2023-04-23T17:19:54;139.48;;;126.03;;
38226;SDS011;24026;49.446;8.576;2023-04-23T17:22:14;138.93;;;125.50;;
38226;SDS011;24026;49.446;8.576;2023-04-23T17:24:34;138.52;;;125.07;;
38226;SDS011;24026;49.446;8.576;2023-04-23T17:26:55;140.90;;;127.30;;
38226;SDS011;24026;49.446;8.576;2023-04-23T17:29:16;139.35;;;125.90;;
38226;SDS011;24026;49.446;8.576;2023-04-23T17:31:37;139.57;;;126.20;;
38226;SDS011;24026;49.446;8.576;2023-04-23T17:33:57;139.40;;;125.90;;
38226;SDS011;24026;49.446;8.576;2023-04-23T17:36:18;138.38;;;124.97;;
38226;SDS011;24026;49.446;8.576;2023-04-23T17:38:38;138.35;;;124.95;;
38226;SDS011;24026;49.446;8.576;2023-04-23T17:40:58;139.32;;;125.80;;
38226;SDS011;24026;49.446;8.576;2023-04-23T17:43:19;139.00;;;125.50;;
38226;SDS011;24026;49.446;8.576;2023-04-23T17:45:40;139.90;;;126.40;;
38226;SDS011;24026;49.446;8.576;2023-04-23T17:48:02;139.23;;;125.75;;
38226;SDS011;24026;49.446;8.576;2023-04-23T17:50:22;138.85;;;125.45;;
38226;SDS011;24026;49.446;8.576;2023-04-23T17:52:43;139.93;;;126.43;;
38226;SDS011;24026;49.446;8.576;2023-04-23T17:55:04;139.15;;;125.65;;
38226;SDS011;24026;49.446;8.576;2023-04-23T17:57:25;138.75;;;125.38;;
38226;SDS011;24026;49.446;8.576;2023-04-23T17:59:45;139.65;;;126.05;;
38226;SDS011;24026;49.446;8.576;2023-04-23T18:02:06;138.60;;;125.20;;
38226;SDS011;24026;49.446;8.576;2023-04-23T18:04:27;138.85;;;125.32;;
38226;SDS011;24026;49.446;8.576;2023-04-23T18:06:49;138.77;;;125.30;;
38226;SDS011;24026;49.446;8.576;2023-04-23T18:09:09;139.40;;;125.90;;
38226;SDS011;24026;49.446;8.576;2023-04-23T18:11:30;138.18;;;124.78;;
38226;SDS011;24026;49.446;8.576;2023-04-23T18:13:50;138.73;;;125.13;;
38226;SDS011;24026;49.446;8.576;2023-04-23T18:16:12;137.70;;;124.30;;
38226;SDS011;24026;49.446;8.576;2023-04-23T18:18:32;137.57;;;124.20;;
38226;SDS011;24026;49.446;8.576;2023-04-23T18:20:53;136.45;;;123.10;;
38226;SDS011;24026;49.446;8.576;2023-04-23T18:23:14;138.40;;;125.00;;
38226;SDS011;24026;49.446;8.576;2023-04-23T18:25:34;137.25;;;123.88;;
38226;SDS011;24026;49.446;8.576;2023-04-23T18:27:55;137.93;;;124.47;;
38226;SDS011;24026;49.446;8.576;2023-04-23T18:30:16;138.25;;;124.88;;
38226;SDS011;24026;49.446;8.576;2023-04-23T18:32:40;137.30;;;123.93;;
38226;SDS011;24026;49.446;8.576;2023-04-23T18:35:03;140.00;;;126.45;;
38226;SDS011;24026;49.446;8.576;2023-04-23T18:37:30;137.60;;;124.20;;
38226;SDS011;24026;49.446;8.576;2023-04-23T18:39:51;136.88;;;123.50;;
38226;SDS011;24026;49.446;8.576;2023-04-23T18:42:11;138.15;;;124.70;;
38226;SDS011;24026;49.446;8.576;2023-04-23T18:44:32;138.18;;;124.68;;
38226;SDS011;24026;49.446;8.576;2023-04-23T18:46:53;137.45;;;124.03;;
38226;SDS011;24026;49.446;8.576;2023-04-23T18:49:51;136.88;;;123.50;;
38226;SDS011;24026;49.446;8.576;2023-04-23T18:52:27;135.77;;;122.45;;
38226;SDS011;24026;49.446;8.576;2023-04-23T18:54:48;136.63;;;123.25;;
38226;SDS011;24026;49.446;8.576;2023-04-23T18:57:08;137.20;;;123.80;;
38226;SDS011;24026;49.446;8.576;2023-04-23T18:59:29;135.15;;;121.95;;
38226;SDS011;24026;49.446;8.576;2023-04-23T19:01:54;138.73;;;125.28;;
38226;SDS011;24026;49.446;8.576;2023-04-23T19:04:15;137.88;;;124.38;;
38226;SDS011;24026;49.446;8.576;2023-04-23T19:06:36;138.50;;;124.93;;
38226;SDS011;24026;49.446;8.576;2023-04-23T19:08:57;138.85;;;125.32;;
38226;SDS011;24026;49.446;8.576;2023-04-23T19:11:18;137.45;;;124.00;;
38226;SDS011;24026;49.446;8.576;2023-04-23T19:13:38;138.43;;;125.03;;
38226;SDS011;24026;49.446;8.576;2023-04-23T19:15:59;137.27;;;123.80;;
38226;SDS011;24026;49.446;8.576;2023-04-23T19:18:19;137.43;;;123.95;;
38226;SDS011;24026;49.446;8.576;2023-04-23T19:20:40;137.07;;;123.68;;
38226;SDS011;24026;49.446;8.576;2023-04-23T19:23:01;137.15;;;123.63;;
38226;SDS011;24026;49.446;8.576;2023-04-23T19:25:23;136.00;;;122.65;;
38226;SDS011;24026;49.446;8.576;2023-04-23T19:27:44;137.38;;;123.93;;
38226;SDS011;24026;49.446;8.576;2023-04-23T19:30:05;137.70;;;124.25;;
38226;SDS011;24026;49.446;8.576;2023-04-23T19:32:29;137.70;;;124.28;;
38226;SDS011;24026;49.446;8.576;2023-04-23T19:34:50;136.85;;;123.50;;
38226;SDS011;24026;49.446;8.576;2023-04-23T19:37:10;136.85;;;123.43;;
38226;SDS011;24026;49.446;8.576;2023-04-23T19:39:31;137.73;;;124.22;;
38226;SDS011;24026;49.446;8.576;2023-04-23T19:41:51;135.55;;;122.30;;
38226;SDS011;24026;49.446;8.576;2023-04-23T19:44:12;137.95;;;124.50;;
38226;SDS011;24026;49.446;8.576;2023-04-23T19:46:35;136.60;;;123.22;;
38226;SDS011;24026;49.446;8.576;2023-04-23T19:54:59;135.68;;;122.07;;
38226;SDS011;24026;49.446;8.576;2023-04-23T20:03:38;141.23;;;127.20;;
38226;SDS011;24026;49.446;8.576;2023-04-23T20:06:26;135.88;;;122.47;;
38226;SDS011;24026;49.446;8.576;2023-04-23T20:08:52;136.60;;;123.03;;
38226;SDS011;24026;49.446;8.576;2023-04-23T20:12:13;135.38;;;121.93;;
38226;SDS011;24026;49.446;8.576;2023-04-23T20:15:14;135.20;;;121.70;;
38226;SDS011;24026;49.446;8.576;2023-04-23T20:24:14;134.93;;;121.57;;
38226;SDS011;24026;49.446;8.576;2023-04-23T20:33:08;135.63;;;122.18;;
38226;SDS011;24026;49.446;8.576;2023-04-23T20:39:13;133.85;;;120.55;;
38226;SDS011;24026;49.446;8.576;2023-04-23T20:48:46;134.10;;;120.60;;
38226;SDS011;24026;49.446;8.576;2023-04-23T20:51:31;134.43;;;120.90;;
38226;SDS011;24026;49.446;8.576;2023-04-23T20:54:12;134.27;;;120.88;;
38226;SDS011;24026;49.446;8.576;2023-04-23T20:59:39;133.82;;;120.50;;
38226;SDS011;24026;49.446;8.576;2023-04-23T21:02:04;134.65;;;121.25;;
38226;SDS011;24026;49.446;8.576;2023-04-23T21:07:08;134.48;;;121.15;;
38226;SDS011;24026;49.446;8.576;2023-04-23T21:12:07;133.13;;;119.75;;
38226;SDS011;24026;49.446;8.576;2023-04-23T21:15:23;133.27;;;119.93;;
38226;SDS011;24026;49.446;8.576;2023-04-23T21:20:54;134.02;;;120.63;;
